createdAt,value
2022-08-02T00:02:36.877Z,18.52
2022-08-02T00:06:39.242Z,18.56
2022-08-02T00:10:41.308Z,18.67
2022-08-02T00:14:43.367Z,18.69
2022-08-02T00:18:45.611Z,18.51
2022-08-02T00:22:47.634Z,18.43
2022-08-02T00:26:49.703Z,18.36
2022-08-02T00:30:52.171Z,18.46
2022-08-02T00:34:54.209Z,18.55
2022-08-02T00:38:56.852Z,18.54
2022-08-02T00:43:07.254Z,18.59
2022-08-02T00:47:09.865Z,18.65
2022-08-02T00:51:12.896Z,18.69
2022-08-02T00:55:17.463Z,18.71
2022-08-02T00:59:25.472Z,18.72
2022-08-02T01:03:28.047Z,18.74
2022-08-02T01:07:30.107Z,18.80
2022-08-02T01:11:32.798Z,18.81
2022-08-02T01:15:43.889Z,18.77
2022-08-02T01:20:08.946Z,18.74
2022-08-02T01:24:19.055Z,18.62
2022-08-02T01:28:40.973Z,18.56
2022-08-02T01:32:48.940Z,18.49
2022-08-02T01:36:58.737Z,18.40
2022-08-02T01:41:03.742Z,18.35
2022-08-02T01:45:07.999Z,18.19
2022-08-02T01:49:15.931Z,17.96
2022-08-02T01:53:20.242Z,17.62
2022-08-02T01:57:24.513Z,17.41
2022-08-02T02:01:27.074Z,17.31
2022-08-02T02:05:32.185Z,17.40
2022-08-02T02:09:49.262Z,17.35
2022-08-02T02:13:53.260Z,17.01
2022-08-02T02:18:12.568Z,16.79
2022-08-02T02:22:15.737Z,16.77
2022-08-02T02:26:20.876Z,16.69
2022-08-02T02:30:37.388Z,16.66
2022-08-02T02:34:43.248Z,16.67
2022-08-02T02:38:47.135Z,16.81
2022-08-02T02:42:51.909Z,16.93
2022-08-02T02:46:55.350Z,16.93
2022-08-02T02:50:59.548Z,16.86
2022-08-02T02:55:02.847Z,16.67
2022-08-02T02:59:07.045Z,16.53
2022-08-02T03:03:09.565Z,16.40
2022-08-02T03:07:11.641Z,16.39
2022-08-02T03:11:14.346Z,16.47
2022-08-02T03:15:17.817Z,16.37
2022-08-02T03:19:21.796Z,16.25
2022-08-02T03:23:23.867Z,16.17
2022-08-02T03:27:25.943Z,16.04
2022-08-02T03:31:28.519Z,15.89
2022-08-02T03:35:35.408Z,15.86
2022-08-02T03:39:38.318Z,15.93
2022-08-02T03:43:54.262Z,16.11
2022-08-02T03:47:58.888Z,16.25
2022-08-02T03:52:01.904Z,16.26
2022-08-02T03:56:05.828Z,16.26
2022-08-02T04:00:09.643Z,16.29
2022-08-02T04:04:14.335Z,16.15
2022-08-02T04:08:36.857Z,16.06
2022-08-02T04:12:38.865Z,15.96
2022-08-02T04:16:46.380Z,15.92
2022-08-02T04:20:51.464Z,15.91
2022-08-02T04:24:58.730Z,15.89
2022-08-02T04:29:00.820Z,15.96
2022-08-02T04:33:03.109Z,16.10
2022-08-02T04:37:05.798Z,16.23
2022-08-02T04:41:08.502Z,16.43
2022-08-02T04:45:11.569Z,17.62
2022-08-02T04:49:18.907Z,20.49
2022-08-02T04:53:21.065Z,22.88
2022-08-02T04:57:51.229Z,24.37
2022-08-02T05:01:55.195Z,24.81
2022-08-02T05:05:57.268Z,24.54
2022-08-02T05:09:59.441Z,22.85
2022-08-02T05:14:01.856Z,21.86
2022-08-02T05:18:03.993Z,21.76
2022-08-02T05:22:06.040Z,22.50
2022-08-02T05:26:08.104Z,23.47
2022-08-02T05:30:10.910Z,23.26
2022-08-02T05:34:13.005Z,22.62
2022-08-02T05:38:15.085Z,23.55
2022-08-02T05:42:17.176Z,26.30
2022-08-02T05:46:19.217Z,29.20
2022-08-02T05:50:21.729Z,30.17
2022-08-02T05:55:13.242Z,31.08
2022-08-02T05:59:32.412Z,33.22
2022-08-02T06:03:43.773Z,33.83
2022-08-02T06:07:48.157Z,34.61
2022-08-02T06:12:02.573Z,35.24
2022-08-02T06:16:05.917Z,36.53
2022-08-02T06:20:16.468Z,37.24
2022-08-02T06:24:19.819Z,35.81
2022-08-02T06:28:22.883Z,36.00
2022-08-02T06:32:27.206Z,36.40
2022-08-02T06:36:42.435Z,37.31
2022-08-02T06:41:05.228Z,38.46
2022-08-02T06:45:07.892Z,39.30
2022-08-02T06:49:10.043Z,40.55
2022-08-02T06:53:12.456Z,40.86
2022-08-02T06:57:14.546Z,40.99
2022-08-02T07:01:19.185Z,40.86
2022-08-02T07:05:21.485Z,41.14
2022-08-02T07:09:23.675Z,41.73
2022-08-02T07:13:25.698Z,39.22
2022-08-02T07:17:28.598Z,34.54
2022-08-02T07:21:57.878Z,31.83
2022-08-02T07:26:03.228Z,30.00
2022-08-02T07:30:07.432Z,28.78
2022-08-02T07:34:09.483Z,27.83
2022-08-02T07:38:11.544Z,27.23
2022-08-02T07:42:13.876Z,26.95
2022-08-02T07:46:16.169Z,26.79
2022-08-02T07:50:20.320Z,26.57
2022-08-02T07:54:22.615Z,26.45
2022-08-02T07:58:24.690Z,26.25
2022-08-02T08:02:26.735Z,26.21
2022-08-02T08:06:29.366Z,26.29
2022-08-02T08:10:32.224Z,26.35
2022-08-02T08:14:34.481Z,26.38
2022-08-02T08:18:36.663Z,26.16
2022-08-02T08:22:38.635Z,25.99
2022-08-02T08:26:41.036Z,25.97
2022-08-02T08:30:43.060Z,25.96
2022-08-02T08:34:48.366Z,25.83
2022-08-02T08:38:50.478Z,25.85
2022-08-02T08:42:52.952Z,25.99
2022-08-02T08:46:56.558Z,26.03
2022-08-02T08:51:10.461Z,26.08
2022-08-02T08:55:14.000Z,26.07
2022-08-02T08:59:16.054Z,26.00
2022-08-02T09:03:18.335Z,26.09
2022-08-02T09:07:20.383Z,26.13
2022-08-02T09:11:26.014Z,26.16
2022-08-02T09:15:28.272Z,26.15
2022-08-02T09:19:30.294Z,26.07
2022-08-02T09:23:38.867Z,26.00
2022-08-02T09:27:40.936Z,26.03
2022-08-02T09:31:49.441Z,26.15
2022-08-02T09:36:06.634Z,26.34
2022-08-02T09:40:12.006Z,26.53
2022-08-02T09:44:16.488Z,26.66
2022-08-02T09:48:18.650Z,26.77
2022-08-02T09:52:43.304Z,26.89
2022-08-02T09:56:50.896Z,26.86
2022-08-02T10:00:54.800Z,26.93
2022-08-02T10:04:56.888Z,26.77
2022-08-02T10:09:00.039Z,26.77
2022-08-02T10:13:03.017Z,26.74
2022-08-02T10:17:06.660Z,26.87
2022-08-02T10:21:23.926Z,26.92
2022-08-02T10:25:27.243Z,26.95
2022-08-02T10:29:54.051Z,26.95
2022-08-02T10:34:00.028Z,26.90
2022-08-02T10:38:07.923Z,26.97
2022-08-02T10:42:11.288Z,26.94
2022-08-02T10:46:32.909Z,27.00
2022-08-02T10:50:47.156Z,27.17
2022-08-02T10:55:03.252Z,27.47
2022-08-02T10:59:47.127Z,27.75
2022-08-02T11:03:49.595Z,27.83
2022-08-02T11:07:51.740Z,27.98
2022-08-02T11:12:05.796Z,28.10
2022-08-02T11:16:11.561Z,28.10
2022-08-02T11:20:16.555Z,28.07
2022-08-02T11:24:39.030Z,27.98
2022-08-02T11:28:41.170Z,27.90
2022-08-02T11:32:43.357Z,28.01
2022-08-02T11:36:49.511Z,28.14
2022-08-02T11:40:57.631Z,28.21
2022-08-02T11:44:59.976Z,28.41
2022-08-02T11:49:15.869Z,28.48
2022-08-02T11:53:18.018Z,28.57
2022-08-02T11:57:21.844Z,28.62
2022-08-02T12:01:23.925Z,28.82
2022-08-02T12:05:51.318Z,28.95
2022-08-02T12:09:48.938Z,29.17
2022-08-02T12:13:56.598Z,29.40
2022-08-02T12:18:18.122Z,29.48
2022-08-02T12:22:27.457Z,29.40
2022-08-02T12:26:30.487Z,29.54
2022-08-02T12:30:49.775Z,29.54
2022-08-02T12:35:10.260Z,29.60
2022-08-02T12:39:14.289Z,29.74
2022-08-02T12:43:19.293Z,29.80
2022-08-02T12:47:21.977Z,29.83
2022-08-02T12:51:57.705Z,29.94
2022-08-02T12:56:03.328Z,30.09
2022-08-02T13:00:06.571Z,30.17
2022-08-02T13:04:13.556Z,30.19
2022-08-02T13:08:16.609Z,30.14
2022-08-02T13:12:18.736Z,29.99
2022-08-02T13:16:31.256Z,30.02
2022-08-02T13:20:33.584Z,30.15
2022-08-02T13:24:39.674Z,30.22
2022-08-02T13:28:57.672Z,30.30
2022-08-02T13:33:01.267Z,30.33
2022-08-02T13:37:04.363Z,30.36
2022-08-02T13:41:09.301Z,30.29
2022-08-02T13:45:12.837Z,30.08
2022-08-02T13:49:19.980Z,29.96
2022-08-02T13:53:24.663Z,29.92
2022-08-02T13:57:26.701Z,29.79
2022-08-02T14:01:28.861Z,29.84
2022-08-02T14:05:47.209Z,30.02
2022-08-02T14:09:50.720Z,30.13
2022-08-02T14:13:52.734Z,30.06
2022-08-02T14:17:54.749Z,30.26
2022-08-02T14:22:10.993Z,30.38
2022-08-02T14:26:27.194Z,30.10
2022-08-02T14:30:30.250Z,30.17
2022-08-02T14:34:32.353Z,30.39
2022-08-02T14:38:36.353Z,30.59
2022-08-02T14:42:38.378Z,30.71
2022-08-02T14:46:41.506Z,30.82
2022-08-02T14:50:43.614Z,30.99
2022-08-02T14:54:46.701Z,30.91
2022-08-02T14:58:49.083Z,30.96
2022-08-02T15:02:51.100Z,30.97
2022-08-02T15:06:53.729Z,30.85
2022-08-02T15:10:55.762Z,30.89
2022-08-02T15:14:58.830Z,30.89
2022-08-02T15:19:06.422Z,31.03
2022-08-02T15:23:08.685Z,31.04
2022-08-02T15:27:13.970Z,31.11
2022-08-02T15:31:32.778Z,31.20
2022-08-02T15:35:35.166Z,31.06
2022-08-02T15:39:37.310Z,30.99
2022-08-02T15:43:59.901Z,30.79
2022-08-02T15:48:01.406Z,30.95
2022-08-02T15:52:05.490Z,31.03
2022-08-02T15:56:12.796Z,31.08
2022-08-02T16:00:18.936Z,30.99
2022-08-02T16:04:21.307Z,30.84
2022-08-02T16:08:23.342Z,30.81
2022-08-02T16:12:32.286Z,30.75
2022-08-02T16:16:36.793Z,30.74
2022-08-02T16:20:38.928Z,30.76
2022-08-02T16:24:41.085Z,30.70
2022-08-02T16:28:43.279Z,30.62
2022-08-02T16:32:45.337Z,30.56
2022-08-02T16:36:47.443Z,30.49
2022-08-02T16:40:49.474Z,30.35
2022-08-02T16:44:53.472Z,30.27
2022-08-02T16:48:55.955Z,30.22
2022-08-02T16:52:58.887Z,30.23
2022-08-02T16:57:03.181Z,30.09
2022-08-02T17:01:05.585Z,29.99
2022-08-02T17:05:13.519Z,29.89
2022-08-02T17:10:04.297Z,29.89
2022-08-02T17:13:38.307Z,29.88
2022-08-02T17:17:42.154Z,29.82
2022-08-02T17:21:45.464Z,29.76
2022-08-02T17:25:52.327Z,29.70
2022-08-02T17:29:55.290Z,29.62
2022-08-02T17:33:58.433Z,29.48
2022-08-02T17:38:00.692Z,29.38
2022-08-02T17:42:04.647Z,29.28
2022-08-02T17:46:06.843Z,29.18
2022-08-02T17:54:32.230Z,28.90
2022-08-02T17:58:34.339Z,28.80
2022-08-02T18:02:36.671Z,28.67
2022-08-02T18:06:39.719Z,28.59
2022-08-02T18:10:42.057Z,28.50
2022-08-02T18:14:49.152Z,28.40
2022-08-02T18:18:51.511Z,28.32
2022-08-02T18:22:58.546Z,28.22
2022-08-02T18:27:00.998Z,28.13
2022-08-02T18:31:06.540Z,28.02
2022-08-02T18:35:09.349Z,27.93
2022-08-02T18:39:11.360Z,27.82
2022-08-02T18:43:14.295Z,27.68
2022-08-02T18:47:16.600Z,27.48
2022-08-02T18:51:19.372Z,27.33
2022-08-02T18:56:00.033Z,27.14
2022-08-02T18:59:43.543Z,26.95
2022-08-02T19:03:53.557Z,26.77
2022-08-02T19:07:55.570Z,26.64
2022-08-02T19:11:57.612Z,26.48
2022-08-02T19:15:59.708Z,26.34
2022-08-02T19:20:02.470Z,26.22
2022-08-02T19:24:04.733Z,26.10
2022-08-02T19:28:06.961Z,25.97
2022-08-02T19:32:42.984Z,25.88
2022-08-02T19:36:32.573Z,25.74
2022-08-02T19:40:38.503Z,25.47
2022-08-02T19:44:44.831Z,25.20
2022-08-02T19:48:47.477Z,25.01
2022-08-02T19:52:49.608Z,24.86
2022-08-02T19:56:54.971Z,24.73
2022-08-02T20:00:59.011Z,24.59
2022-08-02T20:05:08.029Z,24.45
2022-08-02T20:09:21.360Z,24.30
2022-08-02T20:13:24.650Z,24.18
2022-08-02T20:17:31.473Z,24.03
2022-08-02T20:21:35.942Z,23.77
2022-08-02T20:25:39.070Z,23.51
2022-08-02T20:29:49.852Z,23.48
2022-08-02T20:33:55.967Z,23.42
2022-08-02T20:38:01.627Z,23.34
2022-08-02T20:42:22.557Z,23.20
2022-08-02T20:46:26.331Z,22.90
2022-08-02T20:50:49.340Z,22.73
2022-08-02T20:54:52.839Z,22.67
2022-08-02T20:58:55.745Z,22.56
2022-08-02T21:03:07.374Z,22.34
2022-08-02T21:07:11.574Z,22.12
2022-08-02T21:11:15.190Z,21.94
2022-08-02T21:15:17.356Z,21.84
2022-08-02T21:19:19.369Z,21.68
2022-08-02T21:23:24.166Z,21.67
2022-08-02T21:27:53.136Z,21.79
2022-08-02T21:31:48.712Z,21.69
2022-08-02T21:35:53.208Z,21.49
2022-08-02T21:39:55.311Z,21.43
2022-08-02T21:44:01.785Z,21.38
2022-08-02T21:48:08.256Z,21.26
2022-08-02T21:52:10.451Z,21.06
2022-08-02T21:56:12.510Z,20.93
2022-08-02T22:00:14.943Z,20.79
2022-08-02T22:04:17.111Z,20.83
2022-08-02T22:08:19.246Z,20.86
2022-08-02T22:12:21.897Z,20.77
2022-08-02T22:16:28.274Z,20.63
2022-08-02T22:20:31.180Z,20.64
2022-08-02T22:24:33.241Z,20.72
2022-08-02T22:28:50.360Z,20.75
2022-08-02T22:33:15.206Z,20.58
2022-08-02T22:38:14.632Z,20.42
2022-08-02T22:42:01.267Z,20.28
2022-08-02T22:46:02.450Z,20.22
2022-08-02T22:50:04.987Z,20.14
2022-08-02T22:54:11.814Z,20.00
2022-08-02T22:58:14.196Z,19.92
2022-08-02T22:58:40.626Z,29.02
2022-08-02T23:02:21.607Z,19.80
2022-08-02T23:06:27.091Z,19.69
2022-08-02T23:10:29.149Z,19.67
2022-08-02T23:14:31.315Z,19.79
2022-08-02T23:18:52.040Z,19.80
2022-08-02T23:22:55.778Z,19.82
2022-08-02T23:26:57.917Z,19.84
2022-08-02T23:31:00.008Z,19.80
2022-08-02T23:35:02.085Z,19.67
2022-08-02T23:39:04.191Z,19.61
2022-08-02T23:43:15.047Z,19.46
2022-08-02T23:47:18.042Z,19.36
2022-08-02T23:51:21.985Z,19.34
2022-08-02T23:55:24.419Z,19.22
2022-08-02T23:59:26.449Z,19.08
